createdAt,value
2022-08-26T00:00:55.741Z,15.56
2022-08-26T00:03:24.016Z,15.41
2022-08-26T00:05:52.088Z,15.28
2022-08-26T00:08:23.537Z,15.18
2022-08-26T00:10:53.699Z,15.68
2022-08-26T00:13:28.478Z,16.68
2022-08-26T00:16:00.492Z,17.28
2022-08-26T00:18:38.564Z,17.68
2022-08-26T00:21:12.251Z,17.97
2022-08-26T00:23:56.115Z,18.19
2022-08-26T00:26:25.034Z,18.39
2022-08-26T00:28:58.475Z,18.59
2022-08-26T00:31:26.749Z,18.77
2022-08-26T00:34:06.252Z,18.91
2022-08-26T00:36:34.157Z,18.90
2022-08-26T00:39:07.757Z,18.26
2022-08-26T00:41:38.756Z,17.58
2022-08-26T00:44:08.923Z,17.06
2022-08-26T00:46:47.010Z,16.65
2022-08-26T00:49:41.722Z,16.29
2022-08-26T00:52:16.036Z,15.98
2022-08-26T00:55:20.460Z,15.73
2022-08-26T00:57:54.051Z,15.44
2022-08-26T01:00:26.606Z,15.22
2022-08-26T01:02:59.476Z,14.99
2022-08-26T01:05:30.694Z,14.80
2022-08-26T01:08:02.226Z,14.64
2022-08-26T01:10:34.617Z,14.49
2022-08-26T01:13:19.007Z,14.39
2022-08-26T01:15:57.380Z,14.80
2022-08-26T01:18:30.063Z,15.81
2022-08-26T01:21:32.948Z,16.51
2022-08-26T01:24:06.757Z,17.06
2022-08-26T01:26:41.643Z,17.39
2022-08-26T01:29:17.003Z,17.63
2022-08-26T01:31:57.195Z,17.83
2022-08-26T01:34:42.898Z,18.03
2022-08-26T01:37:28.475Z,18.17
2022-08-26T01:40:03.882Z,18.34
2022-08-26T01:42:42.059Z,18.41
2022-08-26T01:45:25.526Z,17.84
2022-08-26T01:48:08.750Z,17.11
2022-08-26T01:50:40.576Z,16.54
2022-08-26T01:53:14.180Z,16.12
2022-08-26T01:55:49.464Z,15.75
2022-08-26T01:58:48.492Z,15.45
2022-08-26T02:01:16.525Z,15.12
2022-08-26T02:04:00.084Z,14.88
2022-08-26T02:06:29.173Z,14.62
2022-08-26T02:09:00.014Z,14.38
2022-08-26T02:11:29.242Z,14.19
2022-08-26T02:14:06.280Z,14.06
2022-08-26T02:16:42.767Z,13.95
2022-08-26T02:19:21.522Z,13.86
2022-08-26T02:21:58.710Z,13.82
2022-08-26T02:24:31.358Z,14.61
2022-08-26T02:26:59.854Z,15.49
2022-08-26T02:29:38.681Z,16.06
2022-08-26T02:32:11.555Z,16.49
2022-08-26T02:34:42.500Z,16.82
2022-08-26T02:37:23.593Z,17.10
2022-08-26T02:39:52.595Z,17.27
2022-08-26T02:42:34.705Z,17.43
2022-08-26T02:45:16.775Z,17.55
2022-08-26T02:47:56.802Z,17.15
2022-08-26T02:50:42.592Z,16.37
2022-08-26T02:53:27.802Z,15.56
2022-08-26T02:55:59.735Z,14.99
2022-08-26T02:58:46.955Z,14.55
2022-08-26T03:01:32.624Z,14.32
2022-08-26T03:04:14.108Z,14.98
2022-08-26T03:06:43.216Z,15.74
2022-08-26T03:09:21.427Z,16.22
2022-08-26T03:11:52.600Z,16.58
2022-08-26T03:14:38.723Z,16.86
2022-08-26T03:17:14.308Z,17.10
2022-08-26T03:19:52.901Z,17.29
2022-08-26T03:22:37.101Z,17.45
2022-08-26T03:25:07.279Z,17.58
2022-08-26T03:27:38.242Z,17.24
2022-08-26T03:30:30.264Z,16.47
2022-08-26T03:33:03.861Z,15.74
2022-08-26T03:35:33.266Z,15.28
2022-08-26T03:38:03.489Z,14.93
2022-08-26T03:40:34.137Z,14.61
2022-08-26T03:43:06.335Z,14.35
2022-08-26T03:45:38.250Z,14.15
2022-08-26T03:48:07.313Z,14.56
2022-08-26T03:50:38.133Z,15.37
2022-08-26T03:53:12.662Z,15.96
2022-08-26T03:55:43.201Z,16.40
2022-08-26T03:58:16.527Z,16.73
2022-08-26T04:00:44.693Z,16.97
2022-08-26T04:03:34.503Z,17.22
2022-08-26T04:06:02.368Z,17.55
2022-08-26T04:08:37.261Z,17.90
2022-08-26T04:11:09.363Z,17.91
2022-08-26T04:13:39.590Z,17.49
2022-08-26T04:16:16.189Z,17.15
2022-08-26T04:18:46.660Z,16.92
2022-08-26T04:21:17.297Z,16.75
2022-08-26T04:23:58.313Z,16.62
2022-08-26T04:26:39.498Z,16.55
2022-08-26T04:29:18.247Z,16.52
2022-08-26T04:31:48.587Z,16.60
2022-08-26T04:34:22.829Z,16.75
2022-08-26T04:36:56.228Z,16.95
2022-08-26T04:39:29.140Z,17.12
2022-08-26T04:41:57.842Z,17.25
2022-08-26T04:44:30.441Z,17.42
2022-08-26T04:46:58.858Z,17.61
2022-08-26T04:49:35.160Z,17.83
2022-08-26T04:52:05.308Z,18.05
2022-08-26T04:54:33.170Z,18.28
2022-08-26T04:57:07.000Z,18.58
2022-08-26T04:59:57.159Z,18.95
2022-08-26T05:02:31.989Z,19.42
2022-08-26T05:05:16.076Z,19.85
2022-08-26T05:07:51.063Z,20.44
2022-08-26T05:10:23.540Z,21.06
2022-08-26T05:12:51.506Z,21.81
2022-08-26T05:15:25.661Z,22.58
2022-08-26T05:18:01.489Z,23.38
2022-08-26T05:20:30.768Z,24.19
2022-08-26T05:23:01.192Z,25.03
2022-08-26T05:25:29.676Z,25.80
2022-08-26T05:28:03.849Z,26.55
2022-08-26T05:30:38.247Z,27.23
2022-08-26T05:33:11.794Z,27.85
2022-08-26T05:35:43.699Z,28.40
2022-08-26T05:38:19.661Z,28.95
2022-08-26T05:40:53.207Z,29.63
2022-08-26T05:43:28.870Z,30.30
2022-08-26T05:46:09.007Z,30.97
2022-08-26T05:48:37.447Z,31.60
2022-08-26T05:51:12.885Z,32.11
2022-08-26T05:53:54.947Z,32.62
2022-08-26T05:56:39.155Z,33.24
2022-08-26T05:59:15.990Z,33.71
2022-08-26T06:02:07.550Z,33.99
2022-08-26T06:04:43.139Z,34.24
2022-08-26T06:07:45.714Z,34.66
2022-08-26T06:10:32.566Z,35.22
2022-08-26T06:13:09.352Z,35.49
2022-08-26T06:16:10.124Z,35.75
2022-08-26T06:18:47.797Z,36.10
2022-08-26T06:21:36.189Z,36.33
2022-08-26T06:24:28.885Z,36.51
2022-08-26T06:27:11.468Z,36.72
2022-08-26T06:29:48.114Z,36.95
2022-08-26T06:32:16.727Z,37.24
2022-08-26T06:34:51.600Z,37.42
2022-08-26T06:37:22.620Z,37.60
2022-08-26T06:39:53.717Z,37.89
2022-08-26T06:42:27.312Z,38.32
2022-08-26T06:45:03.871Z,38.74
2022-08-26T06:47:33.770Z,39.11
2022-08-26T06:50:15.701Z,39.50
2022-08-26T06:53:09.196Z,39.89
2022-08-26T06:55:45.823Z,40.16
2022-08-26T06:58:14.425Z,40.55
2022-08-26T07:00:47.376Z,40.93
2022-08-26T07:03:16.608Z,41.00
2022-08-26T07:05:50.900Z,40.96
2022-08-26T07:08:33.172Z,40.95
2022-08-26T07:11:17.354Z,40.81
2022-08-26T07:13:59.363Z,40.69
2022-08-26T07:16:35.707Z,40.68
2022-08-26T07:19:30.892Z,40.70
2022-08-26T07:22:05.006Z,40.73
2022-08-26T07:24:36.282Z,40.92
2022-08-26T07:27:09.902Z,41.18
2022-08-26T07:29:42.494Z,41.47
2022-08-26T07:32:19.548Z,41.73
2022-08-26T07:34:51.024Z,42.02
2022-08-26T07:37:19.205Z,42.23
2022-08-26T07:40:00.256Z,42.29
2022-08-26T07:42:37.428Z,42.30
2022-08-26T07:45:09.890Z,42.30
2022-08-26T07:47:48.010Z,42.39
2022-08-26T07:50:22.724Z,42.55
2022-08-26T07:53:19.351Z,42.48
2022-08-26T07:55:50.921Z,42.27
2022-08-26T07:58:21.246Z,41.92
2022-08-26T08:00:49.216Z,41.48
2022-08-26T08:03:17.977Z,41.03
2022-08-26T08:05:49.222Z,40.84
2022-08-26T08:08:27.845Z,40.75
2022-08-26T08:11:04.860Z,40.49
2022-08-26T08:13:41.867Z,39.78
2022-08-26T08:16:14.201Z,38.82
2022-08-26T08:18:45.338Z,37.88
2022-08-26T08:21:21.676Z,36.95
2022-08-26T08:24:08.205Z,36.10
2022-08-26T08:26:37.628Z,35.23
2022-08-26T08:29:08.962Z,34.49
2022-08-26T08:31:56.724Z,33.96
2022-08-26T08:34:31.372Z,33.60
2022-08-26T08:36:59.277Z,33.29
2022-08-26T08:39:33.184Z,33.02
2022-08-26T08:42:29.517Z,32.74
2022-08-26T08:45:01.835Z,32.46
2022-08-26T08:47:56.175Z,32.28
2022-08-26T08:50:53.121Z,32.03
2022-08-26T08:53:30.566Z,31.84
2022-08-26T08:56:24.902Z,31.76
2022-08-26T08:59:16.978Z,31.74
2022-08-26T09:01:55.074Z,31.74
2022-08-26T09:04:54.888Z,31.77
2022-08-26T09:07:40.322Z,31.76
2022-08-26T09:10:44.034Z,31.79
2022-08-26T09:13:24.954Z,31.81
2022-08-26T09:16:35.272Z,31.86
2022-08-26T09:19:25.468Z,31.85
2022-08-26T09:22:08.815Z,31.87
2022-08-26T09:24:48.441Z,31.81
2022-08-26T09:27:43.234Z,31.72
2022-08-26T09:30:18.194Z,31.64
2022-08-26T09:32:58.667Z,31.70
2022-08-26T09:35:45.159Z,31.79
2022-08-26T09:38:32.344Z,31.77
2022-08-26T09:41:06.378Z,31.64
2022-08-26T09:43:37.083Z,31.50
2022-08-26T09:46:19.015Z,31.38
2022-08-26T09:48:51.700Z,31.37
2022-08-26T09:51:25.226Z,31.41
2022-08-26T09:53:54.923Z,31.45
2022-08-26T09:56:32.818Z,31.48
2022-08-26T09:59:06.439Z,31.51
2022-08-26T10:01:44.055Z,31.51
2022-08-26T10:04:14.992Z,31.55
2022-08-26T10:07:00.720Z,31.66
2022-08-26T10:09:29.875Z,31.82
2022-08-26T10:12:14.790Z,31.94
2022-08-26T10:14:48.448Z,32.02
2022-08-26T10:17:25.423Z,32.03
2022-08-26T10:19:57.851Z,32.07
2022-08-26T10:22:54.276Z,32.08
2022-08-26T10:25:29.457Z,32.05
2022-08-26T10:28:11.173Z,32.05
2022-08-26T10:30:47.384Z,32.00
2022-08-26T10:33:15.609Z,31.94
2022-08-26T10:35:56.034Z,31.91
2022-08-26T10:38:37.605Z,31.99
2022-08-26T10:41:18.251Z,32.06
2022-08-26T10:43:52.458Z,32.16
2022-08-26T10:46:27.181Z,32.22
2022-08-26T10:49:24.741Z,32.24
2022-08-26T10:52:22.064Z,32.25
2022-08-26T10:55:16.558Z,32.26
2022-08-26T10:57:56.994Z,32.32
2022-08-26T11:01:02.824Z,32.38
2022-08-26T11:03:58.870Z,32.49
2022-08-26T11:06:29.105Z,32.56
2022-08-26T11:09:02.576Z,32.64
2022-08-26T11:11:39.875Z,32.74
2022-08-26T11:14:10.158Z,32.81
2022-08-26T11:16:43.372Z,32.79
2022-08-26T11:19:59.400Z,32.72
2022-08-26T11:22:39.773Z,32.56
2022-08-26T11:25:19.725Z,32.42
2022-08-26T11:27:50.931Z,32.27
2022-08-26T11:30:19.991Z,32.05
2022-08-26T11:32:55.056Z,32.01
2022-08-26T11:35:26.073Z,32.03
2022-08-26T11:37:57.413Z,32.06
2022-08-26T11:40:32.350Z,32.11
2022-08-26T11:43:20.598Z,32.28
2022-08-26T11:46:02.468Z,32.45
2022-08-26T11:48:41.956Z,32.48
2022-08-26T11:51:21.414Z,32.46
2022-08-26T11:53:49.901Z,32.54
2022-08-26T11:56:27.398Z,32.57
2022-08-26T11:59:02.532Z,32.58
2022-08-26T12:01:39.042Z,32.58
2022-08-26T12:04:08.992Z,32.63
2022-08-26T12:06:48.948Z,32.69
2022-08-26T12:09:31.270Z,32.77
2022-08-26T12:12:13.851Z,32.84
2022-08-26T12:14:41.846Z,32.93
2022-08-26T12:17:15.350Z,32.92
2022-08-26T12:19:43.775Z,32.92
2022-08-26T12:22:22.790Z,32.99
2022-08-26T12:25:05.926Z,33.11
2022-08-26T12:27:41.640Z,33.25
2022-08-26T12:30:14.060Z,33.38
2022-08-26T12:32:57.570Z,33.45
2022-08-26T12:35:26.961Z,33.49
2022-08-26T12:37:54.779Z,33.52
2022-08-26T12:40:31.026Z,33.47
2022-08-26T12:43:01.979Z,33.37
2022-08-26T12:45:43.816Z,33.24
2022-08-26T12:48:42.920Z,32.99
2022-08-26T12:51:42.239Z,32.81
2022-08-26T12:54:14.364Z,32.68
2022-08-26T12:56:43.146Z,32.72
2022-08-26T12:59:26.717Z,32.74
2022-08-26T13:01:54.746Z,32.82
2022-08-26T13:04:40.707Z,32.79
2022-08-26T13:07:27.041Z,32.55
2022-08-26T13:09:56.955Z,32.15
2022-08-26T13:12:27.886Z,31.92
2022-08-26T13:14:59.741Z,31.73
2022-08-26T13:17:31.614Z,31.59
2022-08-26T13:20:03.478Z,31.63
2022-08-26T13:22:32.500Z,31.87
2022-08-26T13:25:00.363Z,32.17
2022-08-26T13:27:28.637Z,32.49
2022-08-26T13:29:57.970Z,32.71
2022-08-26T13:32:27.291Z,32.83
2022-08-26T13:34:56.470Z,32.93
2022-08-26T13:37:34.597Z,32.96
2022-08-26T13:40:07.779Z,32.72
2022-08-26T13:42:36.370Z,32.40
2022-08-26T13:45:05.167Z,32.09
2022-08-26T13:47:33.024Z,31.83
2022-08-26T13:50:00.891Z,31.68
2022-08-26T13:52:30.541Z,31.66
2022-08-26T13:55:00.709Z,31.69
2022-08-26T13:57:30.229Z,31.69
2022-08-26T13:59:59.501Z,31.74
2022-08-26T14:02:28.002Z,31.81
2022-08-26T14:04:56.150Z,31.76
2022-08-26T14:07:24.470Z,31.57
2022-08-26T14:09:52.520Z,31.50
2022-08-26T14:12:20.593Z,31.53
2022-08-26T14:14:48.669Z,31.63
2022-08-26T14:17:21.118Z,31.66
2022-08-26T14:19:49.720Z,31.69
2022-08-26T14:22:19.043Z,31.73
2022-08-26T14:24:47.605Z,31.67
2022-08-26T14:27:15.407Z,31.61
2022-08-26T14:29:43.438Z,31.59
2022-08-26T14:32:21.444Z,31.50
2022-08-26T14:34:50.566Z,31.47
2022-08-26T14:37:19.116Z,31.46
2022-08-26T14:39:47.192Z,31.43
2022-08-26T14:42:15.990Z,31.41
2022-08-26T14:44:45.765Z,31.43
2022-08-26T14:47:13.759Z,31.44
2022-08-26T14:49:41.726Z,31.45
2022-08-26T14:52:09.693Z,31.47
2022-08-26T14:54:38.066Z,31.28
2022-08-26T14:57:10.479Z,31.08
2022-08-26T14:59:45.486Z,30.94
2022-08-26T15:02:32.947Z,30.79
2022-08-26T15:05:02.929Z,30.72
2022-08-26T15:07:31.056Z,30.62
2022-08-26T15:09:59.468Z,30.56
2022-08-26T15:12:27.911Z,30.55
2022-08-26T15:14:56.133Z,30.58
2022-08-26T15:17:24.217Z,30.67
2022-08-26T15:19:52.565Z,30.76
2022-08-26T15:22:20.532Z,30.87
2022-08-26T15:24:48.500Z,30.97
2022-08-26T15:27:21.794Z,30.97
2022-08-26T15:29:49.968Z,30.93
2022-08-26T15:32:18.139Z,30.87
2022-08-26T15:34:46.210Z,30.78
2022-08-26T15:37:14.080Z,30.68
2022-08-26T15:39:42.146Z,30.63
2022-08-26T15:42:11.298Z,30.58
2022-08-26T15:44:43.917Z,30.53
2022-08-26T15:47:12.852Z,30.48
2022-08-26T15:49:40.825Z,30.41
2022-08-26T15:52:09.394Z,30.33
2022-08-26T15:54:37.360Z,30.25
2022-08-26T15:57:08.187Z,30.16
2022-08-26T15:59:39.204Z,29.99
2022-08-26T16:02:07.417Z,29.82
2022-08-26T16:04:35.448Z,29.71
2022-08-26T16:07:03.859Z,29.65
2022-08-26T16:09:31.722Z,29.65
2022-08-26T16:12:00.255Z,29.70
2022-08-26T16:14:28.068Z,29.73
2022-08-26T16:16:57.543Z,29.75
2022-08-26T16:19:25.513Z,29.73
2022-08-26T16:21:53.476Z,29.70
2022-08-26T16:24:25.973Z,29.66
2022-08-26T16:26:56.479Z,29.60
2022-08-26T16:29:24.958Z,29.54
2022-08-26T16:31:54.872Z,29.49
2022-08-26T16:34:23.045Z,29.42
2022-08-26T16:36:51.013Z,29.32
2022-08-26T16:39:19.187Z,29.17
2022-08-26T16:41:47.157Z,29.02
2022-08-26T16:44:15.165Z,28.85
2022-08-26T16:46:43.115Z,28.65
2022-08-26T16:49:11.096Z,28.46
2022-08-26T16:51:39.067Z,28.28
2022-08-26T16:54:07.816Z,28.12
2022-08-26T16:56:36.543Z,27.96
2022-08-26T16:59:06.249Z,27.78
2022-08-26T17:01:34.375Z,27.61
2022-08-26T17:04:02.657Z,27.43
2022-08-26T17:06:30.624Z,27.26
2022-08-26T17:08:58.595Z,27.09
2022-08-26T17:11:26.561Z,26.93
2022-08-26T17:13:54.734Z,26.77
2022-08-26T17:16:26.664Z,26.60
2022-08-26T17:18:56.748Z,26.43
2022-08-26T17:21:25.604Z,26.27
2022-08-26T17:23:53.990Z,26.14
2022-08-26T17:26:22.155Z,26.00
2022-08-26T17:28:50.640Z,25.87
2022-08-26T17:31:18.646Z,25.71
2022-08-26T17:33:53.409Z,25.52
2022-08-26T17:36:27.461Z,25.31
2022-08-26T17:38:57.356Z,25.04
2022-08-26T17:41:26.142Z,24.81
2022-08-26T17:43:54.213Z,24.63
2022-08-26T17:46:22.341Z,24.51
2022-08-26T17:48:50.456Z,24.40
2022-08-26T17:51:19.517Z,24.28
2022-08-26T17:53:48.132Z,24.14
2022-08-26T17:56:18.868Z,23.99
2022-08-26T17:58:48.180Z,23.84
2022-08-26T18:01:21.455Z,23.71
2022-08-26T18:03:49.813Z,23.60
2022-08-26T18:06:18.930Z,23.39
2022-08-26T18:08:47.310Z,23.20
2022-08-26T18:11:18.280Z,23.08
2022-08-26T18:13:47.564Z,22.92
2022-08-26T18:16:17.310Z,22.82
2022-08-26T18:18:46.643Z,22.71
2022-08-26T18:21:18.349Z,22.60
2022-08-26T18:23:46.790Z,22.52
2022-08-26T18:26:20.745Z,22.45
2022-08-26T18:28:48.769Z,22.36
2022-08-26T18:31:17.280Z,22.30
2022-08-26T18:33:45.932Z,22.23
2022-08-26T18:36:24.383Z,22.15
2022-08-26T18:38:56.002Z,22.06
2022-08-26T18:41:28.796Z,21.97
2022-08-26T18:43:57.934Z,21.91
2022-08-26T18:46:27.335Z,21.86
2022-08-26T18:48:56.203Z,21.77
2022-08-26T18:51:30.179Z,21.66
2022-08-26T18:53:59.226Z,21.58
2022-08-26T18:56:27.648Z,21.52
2022-08-26T18:58:55.619Z,21.44
2022-08-26T19:01:27.369Z,21.35
2022-08-26T19:03:57.939Z,21.26
2022-08-26T19:06:26.894Z,21.19
2022-08-26T19:08:55.706Z,21.12
2022-08-26T19:11:32.628Z,21.04
2022-08-26T19:14:10.359Z,20.96
2022-08-26T19:16:39.075Z,20.88
2022-08-26T19:19:07.934Z,20.80
2022-08-26T19:21:36.766Z,20.73
2022-08-26T19:24:13.392Z,20.66
2022-08-26T19:26:49.655Z,20.57
2022-08-26T19:29:21.642Z,20.47
2022-08-26T19:31:50.710Z,20.37
2022-08-26T19:34:20.231Z,20.29
2022-08-26T19:36:53.308Z,20.20
2022-08-26T19:39:22.808Z,20.12
2022-08-26T19:41:50.878Z,20.06
2022-08-26T19:44:39.469Z,19.98
2022-08-26T19:47:13.581Z,19.91
2022-08-26T19:49:41.822Z,19.86
2022-08-26T19:52:11.434Z,19.81
2022-08-26T19:54:39.910Z,19.73
2022-08-26T19:57:10.636Z,19.65
2022-08-26T19:59:40.450Z,19.58
2022-08-26T20:02:11.010Z,19.52
2022-08-26T20:04:39.973Z,19.44
2022-08-26T20:07:09.305Z,19.35
2022-08-26T20:09:37.191Z,19.30
2022-08-26T20:12:06.560Z,19.26
2022-08-26T20:14:35.327Z,19.21
2022-08-26T20:17:04.757Z,19.16
2022-08-26T20:19:51.436Z,19.12
2022-08-26T20:22:19.917Z,19.06
2022-08-26T20:24:48.589Z,19.02
2022-08-26T20:27:16.672Z,18.99
2022-08-26T20:29:44.948Z,18.93
2022-08-26T20:32:12.930Z,18.96
2022-08-26T20:34:40.979Z,19.67
2022-08-26T20:37:12.533Z,20.43
2022-08-26T20:39:40.530Z,20.96
2022-08-26T20:42:20.025Z,21.30
2022-08-26T20:44:54.426Z,21.60
2022-08-26T20:47:23.458Z,21.87
2022-08-26T20:49:52.546Z,22.10
2022-08-26T20:52:20.718Z,22.29
2022-08-26T20:54:48.790Z,22.43
2022-08-26T20:57:16.764Z,22.20
2022-08-26T20:59:44.757Z,21.54
2022-08-26T21:02:12.698Z,20.97
2022-08-26T21:04:40.663Z,20.53
2022-08-26T21:07:08.527Z,20.11
2022-08-26T21:09:36.395Z,19.78
2022-08-26T21:12:05.693Z,19.50
2022-08-26T21:14:33.662Z,19.26
2022-08-26T21:17:01.734Z,19.04
2022-08-26T21:19:30.249Z,18.86
2022-08-26T21:21:59.729Z,18.70
2022-08-26T21:24:27.786Z,18.57
2022-08-26T21:26:55.755Z,18.42
2022-08-26T21:29:23.724Z,18.29
2022-08-26T21:31:51.755Z,18.16
2022-08-26T21:34:19.967Z,18.04
2022-08-26T21:36:48.077Z,17.93
2022-08-26T21:39:16.864Z,17.82
2022-08-26T21:41:45.202Z,17.72
2022-08-26T21:44:14.777Z,17.70
2022-08-26T21:46:43.495Z,18.33
2022-08-26T21:49:13.296Z,19.12
2022-08-26T21:51:44.694Z,19.71
2022-08-26T21:54:12.930Z,20.10
2022-08-26T21:56:45.211Z,20.41
2022-08-26T21:59:14.577Z,20.67
2022-08-26T22:01:42.677Z,20.89
2022-08-26T22:04:10.848Z,21.06
2022-08-26T22:06:59.700Z,21.19
2022-08-26T22:09:29.205Z,21.33
2022-08-26T22:11:57.378Z,21.37
2022-08-26T22:14:30.748Z,20.80
2022-08-26T22:16:59.518Z,20.00
2022-08-26T22:19:27.671Z,19.43
2022-08-26T22:21:56.630Z,18.98
2022-08-26T22:24:26.092Z,18.65
2022-08-26T22:26:54.710Z,18.41
2022-08-26T22:29:24.505Z,18.20
2022-08-26T22:31:52.826Z,18.01
2022-08-26T22:34:23.128Z,17.85
2022-08-26T22:36:51.229Z,17.69
2022-08-26T22:39:23.051Z,17.49
2022-08-26T22:41:52.323Z,17.31
2022-08-26T22:44:21.250Z,17.14
2022-08-26T22:46:50.335Z,17.11
2022-08-26T22:49:18.243Z,17.79
2022-08-26T22:51:46.593Z,18.58
2022-08-26T22:54:14.893Z,19.16
2022-08-26T22:56:44.421Z,19.53
2022-08-26T22:59:12.633Z,19.78
2022-08-26T23:01:42.961Z,20.00
2022-08-26T23:04:11.636Z,20.22
2022-08-26T23:06:41.559Z,20.43
2022-08-26T23:09:09.711Z,20.62
2022-08-26T23:11:42.311Z,20.76
2022-08-26T23:14:11.193Z,20.39
2022-08-26T23:16:41.723Z,19.66
2022-08-26T23:19:11.537Z,18.97
2022-08-26T23:21:39.912Z,18.46
2022-08-26T23:24:08.089Z,18.09
2022-08-26T23:26:36.669Z,17.80
2022-08-26T23:29:06.045Z,17.54
2022-08-26T23:31:34.404Z,17.31
2022-08-26T23:34:21.259Z,17.11
2022-08-26T23:36:49.327Z,16.87
2022-08-26T23:39:17.192Z,16.67
2022-08-26T23:41:45.265Z,16.49
2022-08-26T23:44:13.169Z,16.31
2022-08-26T23:46:40.993Z,16.17
2022-08-26T23:49:08.963Z,16.08
2022-08-26T23:51:56.997Z,16.06
2022-08-26T23:54:25.076Z,16.80
2022-08-26T23:56:53.041Z,17.57
2022-08-26T23:59:20.906Z,18.14
